Hlavní strana
METAR-TAF:

METAR-TAF

Letiště :

Natchez-Adams County Airport (Hardy-Anders Field)

Natchez, Mississippi, Spojené státy americké

zeměpisná šířka: 31-37N, zeměpisná délka: 091-18W, výška: 83 m

Aktuální stav počasí

Zpráva byla vytvořena před 21 minutami, v 18:06 UTC
Jihojihozápadní vítr 4 kt
Teplota 13°C
Vlhkost vzduchu 94%
Tlak 1012 hPa
Viditelnost: 4.8 km
Zataženo ve výšce 300 ft
kouřmo

METAR: KHEZ 141806Z AUTO 20004KT 3SM BR OVC003 13/12 A2989 RMK AO2

Čas: 12:27 (18:27 UTC)


TAF: chybějící

Stav a předpovědi počasí z více než 4 000 letišť (zprávy METAR a TAF).

Červené a žluté tečky na mapě představují dostupné meteorologické stanice.

Když kurzor umístíte na tečku, zobrazí se název stanice.

Pak kliknutím zobrazíte stav a předpověď počasí.

Chcete-li změnit mapu, kliknutím na zelené tlačítko se znaménkem +mapu přiblížíte, kliknutím na zelené tlačítko se znaménkem – mapu oddálíte a kliknutím na zelené šipky přejdete na sousední mapy.


METAR-TAF: